sensor_id;sensor_type;location;lat;lon;timestamp;temperature;humidity
1594;DHT22;790;47.000;16.084;2022-12-18T00:05:52;0.60;99.90
1594;DHT22;790;47.000;16.084;2022-12-18T00:12:14;0.50;99.90
1594;DHT22;790;47.000;16.084;2022-12-18T00:18:35;0.70;99.90
1594;DHT22;790;47.000;16.084;2022-12-18T00:24:58;0.40;99.90
1594;DHT22;790;47.000;16.084;2022-12-18T00:31:21;0.30;99.90
1594;DHT22;790;47.000;16.084;2022-12-18T00:37:42;0.10;99.90
1594;DHT22;790;47.000;16.084;2022-12-18T00:48:29;0.00;99.90
1594;DHT22;790;47.000;16.084;2022-12-18T00:54:37;-0.10;99.90
1594;DHT22;790;47.000;16.084;2022-12-18T01:00:44;-0.10;99.90
1594;DHT22;790;47.000;16.084;2022-12-18T01:06:53;-0.20;99.90
1594;DHT22;790;47.000;16.084;2022-12-18T01:13:01;-0.20;99.90
1594;DHT22;790;47.000;16.084;2022-12-18T01:19:09;-0.40;99.90
1594;DHT22;790;47.000;16.084;2022-12-18T01:25:18;-0.40;99.90
1594;DHT22;790;47.000;16.084;2022-12-18T01:31:28;-0.50;99.90
1594;DHT22;790;47.000;16.084;2022-12-18T01:37:36;-0.50;99.90
1594;DHT22;790;47.000;16.084;2022-12-18T01:48:01;-0.40;99.90
1594;DHT22;790;47.000;16.084;2022-12-18T01:54:22;-0.60;99.90
1594;DHT22;790;47.000;16.084;2022-12-18T02:00:43;-0.60;99.90
1594;DHT22;790;47.000;16.084;2022-12-18T02:07:10;-0.80;99.90
1594;DHT22;790;47.000;16.084;2022-12-18T02:13:41;-0.70;99.90
1594;DHT22;790;47.000;16.084;2022-12-18T02:20:12;-0.70;99.90
1594;DHT22;790;47.000;16.084;2022-12-18T02:26:38;-0.50;99.90
1594;DHT22;790;47.000;16.084;2022-12-18T02:33:04;-0.60;99.90
1594;DHT22;790;47.000;16.084;2022-12-18T02:39:28;-0.60;99.90
1594;DHT22;790;47.000;16.084;2022-12-18T02:50:30;-0.40;99.90
1594;DHT22;790;47.000;16.084;2022-12-18T02:56:47;-0.30;99.90
1594;DHT22;790;47.000;16.084;2022-12-18T03:03:01;-0.20;99.90
1594;DHT22;790;47.000;16.084;2022-12-18T03:09:17;-0.30;99.90
1594;DHT22;790;47.000;16.084;2022-12-18T03:15:29;-0.70;99.90
1594;DHT22;790;47.000;16.084;2022-12-18T03:21:46;-0.50;99.90
1594;DHT22;790;47.000;16.084;2022-12-18T03:27:59;-0.50;99.90
1594;DHT22;790;47.000;16.084;2022-12-18T03:34:11;-0.30;99.90
1594;DHT22;790;47.000;16.084;2022-12-18T03:40:24;-0.30;99.90
1594;DHT22;790;47.000;16.084;2022-12-18T03:51:05;-0.40;99.90
1594;DHT22;790;47.000;16.084;2022-12-18T03:57:28;-0.50;99.90
1594;DHT22;790;47.000;16.084;2022-12-18T04:03:51;-0.40;99.90
1594;DHT22;790;47.000;16.084;2022-12-18T04:10:15;-0.60;99.90
1594;DHT22;790;47.000;16.084;2022-12-18T04:16:36;-1.00;99.90
1594;DHT22;790;47.000;16.084;2022-12-18T04:22:57;-1.30;99.90
1594;DHT22;790;47.000;16.084;2022-12-18T04:29:20;-1.40;99.90
1594;DHT22;790;47.000;16.084;2022-12-18T04:35:40;-1.40;99.90
1594;DHT22;790;47.000;16.084;2022-12-18T04:42:01;-1.20;99.90
1594;DHT22;790;47.000;16.084;2022-12-18T04:52:47;-0.90;99.90
1594;DHT22;790;47.000;16.084;2022-12-18T04:58:55;-0.70;99.90
1594;DHT22;790;47.000;16.084;2022-12-18T05:05:04;-0.60;99.90
1594;DHT22;790;47.000;16.084;2022-12-18T05:11:15;-0.60;99.90
1594;DHT22;790;47.000;16.084;2022-12-18T05:17:22;-0.50;99.90
1594;DHT22;790;47.000;16.084;2022-12-18T05:23:30;-0.30;99.90
1594;DHT22;790;47.000;16.084;2022-12-18T05:29:42;-0.10;99.90
1594;DHT22;790;47.000;16.084;2022-12-18T05:36:18;-0.10;99.90
1594;DHT22;790;47.000;16.084;2022-12-18T05:42:26;-0.10;99.90
1594;DHT22;790;47.000;16.084;2022-12-18T05:52:59;0.00;99.90
1594;DHT22;790;47.000;16.084;2022-12-18T05:59:20;0.00;99.90
1594;DHT22;790;47.000;16.084;2022-12-18T06:05:44;0.00;99.90
1594;DHT22;790;47.000;16.084;2022-12-18T06:12:07;0.10;99.90
1594;DHT22;790;47.000;16.084;2022-12-18T06:18:28;-0.10;99.90
1594;DHT22;790;47.000;16.084;2022-12-18T06:24:49;-0.30;99.90
1594;DHT22;790;47.000;16.084;2022-12-18T06:31:12;-0.40;99.90
1594;DHT22;790;47.000;16.084;2022-12-18T06:37:33;-0.40;99.90
1594;DHT22;790;47.000;16.084;2022-12-18T06:43:54;-0.30;99.90
1594;DHT22;790;47.000;16.084;2022-12-18T06:54:40;-0.20;99.90
1594;DHT22;790;47.000;16.084;2022-12-18T07:00:48;-0.40;99.90
1594;DHT22;790;47.000;16.084;2022-12-18T07:06:56;-0.40;99.90
1594;DHT22;790;47.000;16.084;2022-12-18T07:13:06;-0.50;99.90
1594;DHT22;790;47.000;16.084;2022-12-18T07:19:14;-0.50;99.90
1594;DHT22;790;47.000;16.084;2022-12-18T07:25:22;-0.40;99.90
1594;DHT22;790;47.000;16.084;2022-12-18T07:31:30;-0.30;99.90
1594;DHT22;790;47.000;16.084;2022-12-18T07:37:38;-0.10;99.90
1594;DHT22;790;47.000;16.084;2022-12-18T07:43:46;0.00;99.90
1594;DHT22;790;47.000;16.084;2022-12-18T07:54:10;0.20;99.90
1594;DHT22;790;47.000;16.084;2022-12-18T08:00:31;0.30;99.90
1594;DHT22;790;47.000;16.084;2022-12-18T08:06:52;0.10;99.90
1594;DHT22;790;47.000;16.084;2022-12-18T08:13:15;0.10;99.90
1594;DHT22;790;47.000;16.084;2022-12-18T08:19:36;0.10;99.90
1594;DHT22;790;47.000;16.084;2022-12-18T08:25:58;0.00;99.90
1594;DHT22;790;47.000;16.084;2022-12-18T08:32:21;-0.10;99.90
1594;DHT22;790;47.000;16.084;2022-12-18T08:38:41;0.00;99.90
1594;DHT22;790;47.000;16.084;2022-12-18T08:45:03;0.10;99.90
1594;DHT22;790;47.000;16.084;2022-12-18T08:55:40;0.20;99.90
1594;DHT22;790;47.000;16.084;2022-12-18T09:01:49;0.20;99.90
1594;DHT22;790;47.000;16.084;2022-12-18T09:07:57;0.40;99.90
1594;DHT22;790;47.000;16.084;2022-12-18T09:14:06;0.60;99.90
1594;DHT22;790;47.000;16.084;2022-12-18T09:20:14;0.70;99.90
1594;DHT22;790;47.000;16.084;2022-12-18T09:26:22;0.80;99.90
1594;DHT22;790;47.000;16.084;2022-12-18T09:32:31;0.70;99.90
1594;DHT22;790;47.000;16.084;2022-12-18T09:38:38;0.70;99.90
1594;DHT22;790;47.000;16.084;2022-12-18T09:44:49;0.70;99.90
1594;DHT22;790;47.000;16.084;2022-12-18T09:55:10;0.70;99.90
1594;DHT22;790;47.000;16.084;2022-12-18T10:01:32;0.80;99.90
1594;DHT22;790;47.000;16.084;2022-12-18T10:08:01;1.00;99.90
1594;DHT22;790;47.000;16.084;2022-12-18T10:14:30;0.90;99.90
1594;DHT22;790;47.000;16.084;2022-12-18T10:20:57;1.00;99.90
1594;DHT22;790;47.000;16.084;2022-12-18T10:27:23;1.10;99.90
1594;DHT22;790;47.000;16.084;2022-12-18T10:33:46;1.10;99.90
1594;DHT22;790;47.000;16.084;2022-12-18T10:40:10;1.30;99.90
1594;DHT22;790;47.000;16.084;2022-12-18T10:46:32;1.20;99.90
1594;DHT22;790;47.000;16.084;2022-12-18T10:57:31;1.20;99.90
1594;DHT22;790;47.000;16.084;2022-12-18T11:03:40;1.30;99.90
1594;DHT22;790;47.000;16.084;2022-12-18T11:10:00;1.30;99.90
1594;DHT22;790;47.000;16.084;2022-12-18T11:16:19;1.30;99.90
1594;DHT22;790;47.000;16.084;2022-12-18T11:22:29;1.40;99.90
1594;DHT22;790;47.000;16.084;2022-12-18T11:28:39;1.50;99.90
1594;DHT22;790;47.000;16.084;2022-12-18T11:34:51;1.30;99.90
1594;DHT22;790;47.000;16.084;2022-12-18T11:41:05;1.30;99.90
1594;DHT22;790;47.000;16.084;2022-12-18T11:47:24;1.40;99.90
1594;DHT22;790;47.000;16.084;2022-12-18T11:58:04;1.40;99.90
1594;DHT22;790;47.000;16.084;2022-12-18T12:04:43;1.40;99.90
1594;DHT22;790;47.000;16.084;2022-12-18T12:11:10;1.70;99.90
1594;DHT22;790;47.000;16.084;2022-12-18T12:17:40;1.70;99.90
1594;DHT22;790;47.000;16.084;2022-12-18T12:24:14;1.80;99.90
1594;DHT22;790;47.000;16.084;2022-12-18T12:30:48;1.90;99.90
1594;DHT22;790;47.000;16.084;2022-12-18T12:37:23;1.90;99.90
1594;DHT22;790;47.000;16.084;2022-12-18T12:43:48;1.90;99.90
1594;DHT22;790;47.000;16.084;2022-12-18T12:50:14;1.90;99.90
1594;DHT22;790;47.000;16.084;2022-12-18T13:01:37;1.90;99.90
1594;DHT22;790;47.000;16.084;2022-12-18T13:07:50;2.00;99.90
1594;DHT22;790;47.000;16.084;2022-12-18T13:14:00;2.00;99.90
1594;DHT22;790;47.000;16.084;2022-12-18T13:20:12;1.90;99.90
1594;DHT22;790;47.000;16.084;2022-12-18T13:26:31;1.80;99.90
1594;DHT22;790;47.000;16.084;2022-12-18T13:32:39;1.90;99.90
1594;DHT22;790;47.000;16.084;2022-12-18T13:39:10;1.90;99.90
1594;DHT22;790;47.000;16.084;2022-12-18T13:45:40;2.00;99.90
1594;DHT22;790;47.000;16.084;2022-12-18T13:51:51;2.00;99.90
1594;DHT22;790;47.000;16.084;2022-12-18T14:02:27;2.00;99.90
1594;DHT22;790;47.000;16.084;2022-12-18T14:08:49;2.00;99.90
1594;DHT22;790;47.000;16.084;2022-12-18T14:15:20;2.00;99.90
1594;DHT22;790;47.000;16.084;2022-12-18T14:21:47;2.00;99.90
1594;DHT22;790;47.000;16.084;2022-12-18T14:28:14;2.00;99.90
1594;DHT22;790;47.000;16.084;2022-12-18T14:34:35;2.00;99.90
1594;DHT22;790;47.000;16.084;2022-12-18T14:40:59;2.00;99.90
1594;DHT22;790;47.000;16.084;2022-12-18T14:47:22;2.00;99.90
1594;DHT22;790;47.000;16.084;2022-12-18T14:53:44;2.00;99.90
1594;DHT22;790;47.000;16.084;2022-12-18T15:04:34;2.10;99.90
1594;DHT22;790;47.000;16.084;2022-12-18T15:10:47;2.10;99.90
1594;DHT22;790;47.000;16.084;2022-12-18T15:16:56;2.10;99.90
1594;DHT22;790;47.000;16.084;2022-12-18T15:23:14;2.10;99.90
1594;DHT22;790;47.000;16.084;2022-12-18T15:29:25;2.10;99.90
1594;DHT22;790;47.000;16.084;2022-12-18T15:35:32;2.00;99.90
1594;DHT22;790;47.000;16.084;2022-12-18T15:41:41;2.00;99.90
1594;DHT22;790;47.000;16.084;2022-12-18T15:48:18;2.00;99.90
1594;DHT22;790;47.000;16.084;2022-12-18T15:54:27;2.10;99.90
1594;DHT22;790;47.000;16.084;2022-12-18T16:05:20;2.00;99.90
1594;DHT22;790;47.000;16.084;2022-12-18T16:11:43;2.00;99.90
1594;DHT22;790;47.000;16.084;2022-12-18T16:18:06;1.90;99.90
1594;DHT22;790;47.000;16.084;2022-12-18T16:24:31;1.90;99.90
1594;DHT22;790;47.000;16.084;2022-12-18T16:30:53;2.00;99.90
1594;DHT22;790;47.000;16.084;2022-12-18T16:37:15;1.90;99.90
1594;DHT22;790;47.000;16.084;2022-12-18T16:43:38;1.90;99.90
1594;DHT22;790;47.000;16.084;2022-12-18T16:50:00;1.90;99.90
1594;DHT22;790;47.000;16.084;2022-12-18T16:56:25;1.90;99.90
1594;DHT22;790;47.000;16.084;2022-12-18T17:07:11;2.00;99.90
1594;DHT22;790;47.000;16.084;2022-12-18T17:13:25;1.90;99.90
1594;DHT22;790;47.000;16.084;2022-12-18T17:19:34;1.90;99.90
1594;DHT22;790;47.000;16.084;2022-12-18T17:25:43;2.00;99.90
1594;DHT22;790;47.000;16.084;2022-12-18T17:31:53;2.00;99.90
1594;DHT22;790;47.000;16.084;2022-12-18T17:38:11;2.00;99.90
1594;DHT22;790;47.000;16.084;2022-12-18T17:44:21;2.00;99.90
1594;DHT22;790;47.000;16.084;2022-12-18T17:50:28;2.00;99.90
1594;DHT22;790;47.000;16.084;2022-12-18T17:56:38;2.00;99.90
1594;DHT22;790;47.000;16.084;2022-12-18T18:07:02;1.90;99.90
1594;DHT22;790;47.000;16.084;2022-12-18T18:13:25;2.00;99.90
1594;DHT22;790;47.000;16.084;2022-12-18T18:20:06;1.90;99.90
1594;DHT22;790;47.000;16.084;2022-12-18T18:26:30;1.90;99.90
1594;DHT22;790;47.000;16.084;2022-12-18T18:32:51;1.90;99.90
1594;DHT22;790;47.000;16.084;2022-12-18T18:39:13;2.00;99.90
1594;DHT22;790;47.000;16.084;2022-12-18T18:45:36;1.90;99.90
1594;DHT22;790;47.000;16.084;2022-12-18T18:51:57;2.00;99.90
1594;DHT22;790;47.000;16.084;2022-12-18T18:58:18;2.00;99.90
1594;DHT22;790;47.000;16.084;2022-12-18T19:09:05;2.00;99.90
1594;DHT22;790;47.000;16.084;2022-12-18T19:15:13;2.00;99.90
1594;DHT22;790;47.000;16.084;2022-12-18T19:21:21;1.90;99.90
1594;DHT22;790;47.000;16.084;2022-12-18T19:27:30;1.90;99.90
1594;DHT22;790;47.000;16.084;2022-12-18T19:33:40;2.00;99.90
1594;DHT22;790;47.000;16.084;2022-12-18T19:39:48;2.00;99.90
1594;DHT22;790;47.000;16.084;2022-12-18T19:45:58;1.90;99.90
1594;DHT22;790;47.000;16.084;2022-12-18T19:52:06;1.90;99.90
1594;DHT22;790;47.000;16.084;2022-12-18T19:58:14;1.90;99.90
1594;DHT22;790;47.000;16.084;2022-12-18T20:08:37;1.80;99.90
1594;DHT22;790;47.000;16.084;2022-12-18T20:14:59;1.80;99.90
1594;DHT22;790;47.000;16.084;2022-12-18T20:21:21;1.80;99.90
1594;DHT22;790;47.000;16.084;2022-12-18T20:27:43;1.90;99.90
1594;DHT22;790;47.000;16.084;2022-12-18T20:34:03;1.90;99.90
1594;DHT22;790;47.000;16.084;2022-12-18T20:40:24;1.80;99.90
1594;DHT22;790;47.000;16.084;2022-12-18T20:46:47;1.80;99.90
1594;DHT22;790;47.000;16.084;2022-12-18T20:53:08;1.80;99.90
1594;DHT22;790;47.000;16.084;2022-12-18T20:59:29;1.80;99.90
1594;DHT22;790;47.000;16.084;2022-12-18T21:09:55;1.80;99.90
1594;DHT22;790;47.000;16.084;2022-12-18T21:16:03;1.90;99.90
1594;DHT22;790;47.000;16.084;2022-12-18T21:22:10;1.90;99.90
1594;DHT22;790;47.000;16.084;2022-12-18T21:28:20;1.90;99.90
1594;DHT22;790;47.000;16.084;2022-12-18T21:34:29;1.90;99.90
1594;DHT22;790;47.000;16.084;2022-12-18T21:40:38;1.90;99.90
1594;DHT22;790;47.000;16.084;2022-12-18T21:46:48;1.90;99.90
1594;DHT22;790;47.000;16.084;2022-12-18T21:52:56;1.90;99.90
1594;DHT22;790;47.000;16.084;2022-12-18T21:59:03;2.00;99.90
1594;DHT22;790;47.000;16.084;2022-12-18T22:09:27;1.80;99.90
1594;DHT22;790;47.000;16.084;2022-12-18T22:15:48;1.90;99.90
1594;DHT22;790;47.000;16.084;2022-12-18T22:22:09;1.90;99.90
1594;DHT22;790;47.000;16.084;2022-12-18T22:28:31;1.90;99.90
1594;DHT22;790;47.000;16.084;2022-12-18T22:35:10;1.90;99.90
1594;DHT22;790;47.000;16.084;2022-12-18T22:41:31;1.90;99.90
1594;DHT22;790;47.000;16.084;2022-12-18T22:47:53;1.80;99.90
1594;DHT22;790;47.000;16.084;2022-12-18T22:54:15;2.00;99.90
1594;DHT22;790;47.000;16.084;2022-12-18T23:00:36;1.90;99.90
1594;DHT22;790;47.000;16.084;2022-12-18T23:11:03;2.00;99.90
1594;DHT22;790;47.000;16.084;2022-12-18T23:17:11;1.90;99.90
1594;DHT22;790;47.000;16.084;2022-12-18T23:23:19;1.90;99.90
1594;DHT22;790;47.000;16.084;2022-12-18T23:29:28;1.80;99.90
1594;DHT22;790;47.000;16.084;2022-12-18T23:35:36;1.70;99.90
1594;DHT22;790;47.000;16.084;2022-12-18T23:41:44;1.80;99.90
1594;DHT22;790;47.000;16.084;2022-12-18T23:47:53;1.80;99.90
1594;DHT22;790;47.000;16.084;2022-12-18T23:54:00;1.80;99.90
